Time;durP1;ratioP1;P1;durP2;ratioP2;P2;SDS_P1;SDS_P2;PMS_P1;PMS_P2;Temp;Humidity;BMP_temperature;BMP_pressure;BME280_temperature;BME280_humidity;BME280_pressure;Samples;Min_cycle;Max_cycle;Signal;HPM_P1;HPM_P2
2022/04/06 00:02:07;;;;;;;;;;;;;;;13.14;66.79;98895.44;4427166;32;20193;-70
2022/04/06 00:04:33;;;;;;;;;;;;;;;13.42;65.46;98894.41;4429122;32;21533;-70
2022/04/06 00:06:59;;;;;;;;;;;;;;;13.58;64.94;98902.22;4428795;32;20532;-70
2022/04/06 00:09:24;;;;;;;;;;;;;;;13.19;66.54;98884.19;4425381;32;20264;-70
2022/04/06 00:11:50;;;;;;;;;;;;;;;13.35;65.82;98894.84;4425893;32;19996;-70
2022/04/06 00:14:16;;;;;;;;;;;;;;;13.25;66.54;98872.94;4424029;32;19949;-70
2022/04/06 00:16:43;;;;;;;;;;;;;;;13.42;65.91;98882.31;4423042;32;20007;-70
2022/04/06 00:19:08;;;;;;;;;;;;;;;11.79;72.22;98867.50;4421032;32;19957;-70
2022/04/06 00:21:34;;;;;;;;;;;;;;;12.60;69.71;98862.56;4422589;32;19949;-70
2022/04/06 00:23:59;;;;;;;;;;;;;;;12.93;67.87;98860.84;4423849;32;19987;-70
2022/04/06 00:26:25;;;;;;;;;;;;;;;13.14;67.37;98859.53;4427825;32;19962;-70
2022/04/06 00:28:51;;;;;;;;;;;;;;;13.07;67.57;98856.38;4424372;32;20013;-70
2022/04/06 00:31:16;;;;;;;;;;;;;;;13.09;67.28;98859.47;4422924;32;21090;-69
2022/04/06 00:33:42;;;;;;;;;;;;;;;13.06;67.46;98866.88;4429590;32;19976;-69
2022/04/06 00:36:07;;;;;;;;;;;;;;;12.99;67.88;98861.72;4430331;32;19950;-69
2022/04/06 00:38:32;;;;;;;;;;;;;;;12.92;68.19;98836.69;4429749;32;19999;-69
2022/04/06 00:40:58;;;;;;;;;;;;;;;12.88;68.46;98853.09;4426608;32;20041;-69
2022/04/06 00:43:24;;;;;;;;;;;;;;;12.90;68.64;98849.78;4425360;32;19946;-69
2022/04/06 00:45:50;;;;;;;;;;;;;;;13.01;68.26;98853.50;4428652;32;19993;-69
2022/04/06 00:48:16;;;;;;;;;;;;;;;12.87;69.10;98857.19;4431982;32;19959;-69
2022/04/06 00:50:42;;;;;;;;;;;;;;;12.85;69.47;98856.91;4425519;32;19975;-69
2022/04/06 00:53:08;;;;;;;;;;;;;;;12.76;70.03;98873.25;4429474;32;20390;-69
2022/04/06 00:55:35;;;;;;;;;;;;;;;12.95;69.21;98871.66;4429255;32;19957;-69
2022/04/06 00:58:01;;;;;;;;;;;;;;;12.37;70.39;98838.22;4431138;32;20033;-69
2022/04/06 01:00:27;;;;;;;;;;;;;;;12.64;70.49;98826.44;4426746;32;20343;-69
2022/04/06 01:02:53;;;;;;;;;;;;;;;11.43;75.73;98825.72;4429662;32;19949;-69
2022/04/06 01:05:19;;;;;;;;;;;;;;;11.45;75.58;98835.22;4424046;32;19953;-69
2022/04/06 01:07:47;;;;;;;;;;;;;;;11.34;75.99;98829.44;4426436;32;20366;-69
2022/04/06 01:10:13;;;;;;;;;;;;;;;12.53;71.45;98831.97;4430620;32;19948;-69
2022/04/06 01:12:39;;;;;;;;;;;;;;;11.40;75.93;98832.31;4424590;32;19958;-69
2022/04/06 01:15:05;;;;;;;;;;;;;;;11.53;75.60;98822.28;4427590;32;19992;-69
2022/04/06 01:17:33;;;;;;;;;;;;;;;11.47;75.94;98831.91;4429651;32;19976;-69
2022/04/06 01:20:00;;;;;;;;;;;;;;;11.49;77.07;98818.13;4425866;32;20375;-69
2022/04/06 01:22:26;;;;;;;;;;;;;;;11.48;77.32;98820.16;4427389;32;19977;-69
2022/04/06 01:24:52;;;;;;;;;;;;;;;11.63;76.84;98822.97;4427102;32;19981;-68
2022/04/06 01:27:17;;;;;;;;;;;;;;;11.56;77.34;98810.03;4430995;32;20377;-69
2022/04/06 01:29:43;;;;;;;;;;;;;;;11.39;78.14;98794.19;4431218;32;19953;-69
2022/04/06 01:32:11;;;;;;;;;;;;;;;11.21;78.89;98800.06;4425191;32;20016;-69
2022/04/06 01:34:37;;;;;;;;;;;;;;;12.53;73.80;98809.41;4428177;32;19949;-69
2022/04/06 01:37:04;;;;;;;;;;;;;;;12.48;72.70;98804.47;4425749;32;19971;-69
2022/04/06 01:39:31;;;;;;;;;;;;;;;12.64;72.04;98796.16;4430674;32;19994;-69
2022/04/06 01:41:56;;;;;;;;;;;;;;;12.76;71.26;98792.16;4426171;32;20411;-68
2022/04/06 01:44:22;;;;;;;;;;;;;;;12.57;71.87;98778.91;4424252;32;20060;-69
2022/04/06 01:46:48;;;;;;;;;;;;;;;12.49;71.78;98761.66;4427868;32;20004;-69
2022/04/06 01:52:13;;;;;;;;;;;;;;;12.29;73.18;98758.91;4426882;32;19964;-68
2022/04/06 01:57:17;;;;;;;;;;;;;;;12.87;72.27;98744.28;3953097;32;15800551;-68
2022/04/06 01:59:43;;;;;;;;;;;;;;;12.87;72.27;98744.28;4425879;32;19967;-68
2022/04/06 02:02:12;;;;;;;;;;;;;;;12.23;75.29;98737.56;4425434;32;19981;-69
2022/04/06 02:04:38;;;;;;;;;;;;;;;11.71;78.21;98742.38;4427108;32;19957;-69
2022/04/06 02:07:04;;;;;;;;;;;;;;;11.56;77.92;98725.53;4428846;32;20354;-69
2022/04/06 02:09:30;;;;;;;;;;;;;;;11.42;78.12;98717.16;4420509;32;19953;-69
2022/04/06 02:11:56;;;;;;;;;;;;;;;11.57;77.71;98704.53;4426715;32;19980;-69
2022/04/06 02:14:22;;;;;;;;;;;;;;;11.55;77.78;98709.12;4424340;32;20832;-69
2022/04/06 02:16:48;;;;;;;;;;;;;;;11.57;77.98;98698.91;4429851;32;20364;-69
2022/04/06 02:19:14;;;;;;;;;;;;;;;11.63;78.06;98693.38;4427802;32;20027;-69
2022/04/06 02:21:39;;;;;;;;;;;;;;;11.58;78.51;98682.78;4426057;32;20000;-69
2022/04/06 02:24:05;;;;;;;;;;;;;;;11.57;78.58;98684.06;4424920;32;19976;-69
2022/04/06 02:26:31;;;;;;;;;;;;;;;11.63;78.30;98691.31;4429454;32;20000;-69
2022/04/06 02:28:57;;;;;;;;;;;;;;;11.53;78.90;98686.31;4425496;32;19995;-69
2022/04/06 02:31:23;;;;;;;;;;;;;;;11.50;79.34;98681.66;4426204;32;19957;-69
2022/04/06 02:33:49;;;;;;;;;;;;;;;11.44;79.26;98689.25;4426085;32;20040;-69
2022/04/06 02:36:14;;;;;;;;;;;;;;;11.49;80.01;98686.53;4427701;32;20017;-69
2022/04/06 02:38:41;;;;;;;;;;;;;;;11.39;80.49;98690.75;4431161;32;20012;-69
2022/04/06 02:41:07;;;;;;;;;;;;;;;12.46;75.55;98671.62;4433979;32;19957;-68
2022/04/06 02:43:32;;;;;;;;;;;;;;;11.45;79.48;98671.88;4431441;32;19972;-68
2022/04/06 02:45:58;;;;;;;;;;;;;;;11.39;79.53;98654.13;4426604;32;19953;-68
2022/04/06 02:48:24;;;;;;;;;;;;;;;11.41;78.36;98648.78;4428391;32;21093;-68
2022/04/06 02:50:50;;;;;;;;;;;;;;;11.44;77.74;98656.25;4426289;32;20351;-69
2022/04/06 02:53:16;;;;;;;;;;;;;;;11.39;77.63;98664.66;4426884;32;19950;-69
2022/04/06 02:55:41;;;;;;;;;;;;;;;11.43;76.67;98668.00;4428983;32;20327;-69
2022/04/06 02:58:07;;;;;;;;;;;;;;;11.41;76.59;98660.06;4428185;32;19962;-69
2022/04/06 03:00:33;;;;;;;;;;;;;;;11.37;76.54;98636.97;4429692;32;19988;-69
2022/04/06 03:02:59;;;;;;;;;;;;;;;11.75;73.05;98647.13;4431641;32;19950;-69
2022/04/06 03:05:25;;;;;;;;;;;;;;;11.36;75.08;98641.06;4435761;32;19965;-69
2022/04/06 03:07:51;;;;;;;;;;;;;;;12.56;69.46;98634.28;4425429;32;19991;-69
2022/04/06 03:10:17;;;;;;;;;;;;;;;11.47;72.99;98620.69;4417004;32;20100;-69
2022/04/06 03:12:43;;;;;;;;;;;;;;;11.50;72.86;98626.09;4415264;32;20343;-69
2022/04/06 03:15:09;;;;;;;;;;;;;;;12.21;70.46;98627.34;4415941;32;19954;-69
2022/04/06 03:17:35;;;;;;;;;;;;;;;11.54;71.45;98640.75;4417778;32;20253;-69
2022/04/06 03:20:02;;;;;;;;;;;;;;;12.25;69.44;98623.00;4419348;32;20004;-69
2022/04/06 03:22:28;;;;;;;;;;;;;;;12.81;65.96;98607.22;4416962;32;20318;-69
2022/04/06 03:24:54;;;;;;;;;;;;;;;12.37;67.05;98615.41;4415472;32;20017;-70
2022/04/06 03:27:20;;;;;;;;;;;;;;;11.67;69.01;98598.94;4415909;32;20387;-70
2022/04/06 03:29:46;;;;;;;;;;;;;;;11.47;69.24;98587.69;4416845;32;21305;-70
2022/04/06 03:32:11;;;;;;;;;;;;;;;11.50;69.49;98591.53;4414426;32;20150;-69
2022/04/06 03:34:37;;;;;;;;;;;;;;;11.60;69.22;98596.50;4413496;32;19989;-69
2022/04/06 03:37:03;;;;;;;;;;;;;;;11.60;69.50;98579.59;4413958;32;20004;-69
2022/04/06 03:39:29;;;;;;;;;;;;;;;11.51;69.93;98581.84;4416791;32;19950;-69
2022/04/06 03:41:54;;;;;;;;;;;;;;;11.51;70.15;98581.84;4419000;32;19965;-69
2022/04/06 03:44:20;;;;;;;;;;;;;;;11.46;70.39;98583.31;4415735;32;19997;-69
2022/04/06 03:46:46;;;;;;;;;;;;;;;11.50;70.72;98580.25;4416285;32;19992;-68
2022/04/06 03:49:12;;;;;;;;;;;;;;;11.98;69.06;98592.53;4415904;32;19958;-68
2022/04/06 03:51:37;;;;;;;;;;;;;;;11.90;69.43;98580.16;4418963;32;19957;-68
2022/04/06 03:54:03;;;;;;;;;;;;;;;11.57;70.51;98557.31;4416063;32;20004;-68
2022/04/06 03:56:29;;;;;;;;;;;;;;;11.65;70.19;98562.03;4415132;32;20000;-68
2022/04/06 03:58:55;;;;;;;;;;;;;;;11.60;70.68;98561.94;4415785;32;19990;-69
2022/04/06 04:01:21;;;;;;;;;;;;;;;11.47;71.56;98559.50;4412234;32;20371;-69
2022/04/06 04:03:47;;;;;;;;;;;;;;;12.55;68.31;98556.53;4415213;32;20020;-68
2022/04/06 04:06:13;;;;;;;;;;;;;;;12.48;67.51;98542.12;4417742;32;19964;-68
2022/04/06 04:08:39;;;;;;;;;;;;;;;12.16;69.16;98547.06;4416659;32;19997;-69
2022/04/06 04:11:04;;;;;;;;;;;;;;;11.72;70.73;98539.03;4416598;32;20421;-69
2022/04/06 04:13:30;;;;;;;;;;;;;;;11.93;69.95;98537.66;4414844;32;20433;-68
2022/04/06 04:15:56;;;;;;;;;;;;;;;11.73;70.72;98565.91;4414518;32;20074;-69
2022/04/06 04:18:22;;;;;;;;;;;;;;;12.36;69.14;98532.84;4414924;32;20001;-69
2022/04/06 04:20:47;;;;;;;;;;;;;;;12.53;68.27;98550.63;4416658;32;19975;-69
2022/04/06 04:23:13;;;;;;;;;;;;;;;12.89;66.10;98554.66;4413699;32;20325;-69
2022/04/06 04:25:39;;;;;;;;;;;;;;;12.84;66.53;98533.59;4415397;32;20291;-69
2022/04/06 04:28:05;;;;;;;;;;;;;;;12.57;66.49;98537.06;4418559;32;19954;-69
2022/04/06 04:30:31;;;;;;;;;;;;;;;12.78;66.79;98532.81;4416325;32;21069;-68
2022/04/06 04:32:57;;;;;;;;;;;;;;;11.63;72.41;98533.56;4420280;32;19965;-70
2022/04/06 04:35:23;;;;;;;;;;;;;;;11.90;71.18;98538.66;4420486;32;20405;-69
2022/04/06 04:37:48;;;;;;;;;;;;;;;11.71;71.92;98545.16;4418280;32;19957;-69
2022/04/06 04:40:16;;;;;;;;;;;;;;;11.49;74.09;98523.19;4417079;32;19980;-69
2022/04/06 04:42:42;;;;;;;;;;;;;;;11.51;73.72;98508.59;4413744;32;20005;-70
2022/04/06 04:45:10;;;;;;;;;;;;;;;11.27;74.03;98510.94;4416901;32;19999;-70
2022/04/06 04:47:36;;;;;;;;;;;;;;;12.51;69.31;98508.03;4420379;32;20383;-68
2022/04/06 04:50:03;;;;;;;;;;;;;;;11.19;72.32;98510.59;4412770;32;19958;-70
2022/04/06 04:52:29;;;;;;;;;;;;;;;11.12;71.85;98513.84;4417874;32;19988;-70
2022/04/06 04:54:54;;;;;;;;;;;;;;;11.11;71.77;98503.09;4416410;32;19953;-70
2022/04/06 04:57:20;;;;;;;;;;;;;;;11.10;71.60;98507.16;4417783;32;19992;-71
2022/04/06 04:59:46;;;;;;;;;;;;;;;11.21;71.44;98496.81;4415412;32;19965;-70
2022/04/06 05:02:11;;;;;;;;;;;;;;;11.54;70.13;98496.34;4412539;32;19965;-70
2022/04/06 05:04:37;;;;;;;;;;;;;;;11.41;68.74;98493.13;4416409;32;19945;-69
2022/04/06 05:07:03;;;;;;;;;;;;;;;12.19;66.38;98492.50;4417006;32;19991;-69
2022/04/06 05:09:29;;;;;;;;;;;;;;;12.48;65.54;98494.94;4416265;32;20097;-68
2022/04/06 05:11:55;;;;;;;;;;;;;;;11.72;66.63;98504.47;4414996;32;20057;-68
2022/04/06 05:14:21;;;;;;;;;;;;;;;12.64;63.07;98487.84;4412972;32;20013;-68
2022/04/06 05:16:46;;;;;;;;;;;;;;;11.30;68.34;98493.81;4417695;32;19961;-68
2022/04/06 05:19:12;;;;;;;;;;;;;;;12.31;65.11;98496.94;4416527;32;20061;-68
2022/04/06 05:21:38;;;;;;;;;;;;;;;11.30;68.15;98482.56;4415250;32;20310;-68
2022/04/06 05:24:04;;;;;;;;;;;;;;;11.55;66.92;98475.34;4419166;32;20421;-68
2022/04/06 05:26:30;;;;;;;;;;;;;;;11.18;68.35;98469.66;4420925;32;20302;-68
2022/04/06 05:28:56;;;;;;;;;;;;;;;11.45;67.85;98497.25;4418774;32;19985;-68
2022/04/06 05:31:22;;;;;;;;;;;;;;;11.26;68.68;98486.88;4415257;32;20333;-68
2022/04/06 05:33:48;;;;;;;;;;;;;;;12.20;64.96;98479.94;4412955;32;19992;-68
2022/04/06 05:36:14;;;;;;;;;;;;;;;11.25;68.66;98465.59;4411872;32;19984;-68
2022/04/06 05:38:40;;;;;;;;;;;;;;;12.55;64.13;98462.69;4415328;32;19954;-68
2022/04/06 05:41:05;;;;;;;;;;;;;;;11.96;66.64;98471.06;4410381;32;19964;-68
2022/04/06 05:43:31;;;;;;;;;;;;;;;11.36;67.21;98468.53;4415362;32;19993;-68
2022/04/06 05:45:56;;;;;;;;;;;;;;;11.25;67.26;98454.34;4412527;32;19992;-68
2022/04/06 05:48:22;;;;;;;;;;;;;;;11.30;67.39;98462.84;4415372;32;19961;-68
2022/04/06 05:50:47;;;;;;;;;;;;;;;11.32;67.47;98462.34;4415108;32;19949;-68
2022/04/06 05:53:15;;;;;;;;;;;;;;;11.70;66.44;98459.09;4411226;32;19994;-68
2022/04/06 05:55:42;;;;;;;;;;;;;;;11.35;67.13;98473.38;4417618;32;20022;-68
2022/04/06 05:58:08;;;;;;;;;;;;;;;12.32;63.57;98467.44;4414288;32;19957;-68
2022/04/06 06:00:33;;;;;;;;;;;;;;;11.36;66.32;98455.22;4413707;32;20343;-68
2022/04/06 06:02:59;;;;;;;;;;;;;;;12.44;62.60;98465.44;4414861;32;19964;-68
2022/04/06 06:05:25;;;;;;;;;;;;;;;12.52;61.99;98472.91;4419360;32;19970;-68
2022/04/06 06:07:51;;;;;;;;;;;;;;;11.51;64.59;98481.19;4418910;32;20015;-68
2022/04/06 06:10:16;;;;;;;;;;;;;;;11.31;65.09;98472.06;4416448;32;20077;-68
2022/04/06 06:12:42;;;;;;;;;;;;;;;11.26;65.89;98470.72;4417610;32;20045;-68
2022/04/06 06:15:08;;;;;;;;;;;;;;;11.40;64.89;98466.25;4414345;32;19945;-68
2022/04/06 06:17:38;;;;;;;;;;;;;;;12.43;61.77;98473.16;4411556;32;20183;-69
2022/04/06 06:20:04;;;;;;;;;;;;;;;11.49;64.66;98472.50;4412927;32;20003;-68
2022/04/06 06:22:29;;;;;;;;;;;;;;;11.73;63.67;98460.94;4412318;32;19953;-69
2022/04/06 06:24:55;;;;;;;;;;;;;;;12.04;61.50;98477.78;4415699;32;19968;-69
2022/04/06 06:27:22;;;;;;;;;;;;;;;11.38;64.52;98466.75;4418163;32;20512;-70
2022/04/06 06:29:48;;;;;;;;;;;;;;;11.44;63.63;98461.16;4414656;32;19949;-69
2022/04/06 06:32:14;;;;;;;;;;;;;;;11.76;63.14;98462.75;4418053;32;19962;-69
2022/04/06 06:34:40;;;;;;;;;;;;;;;11.55;63.55;98453.59;4416699;32;19992;-69
2022/04/06 06:37:06;;;;;;;;;;;;;;;11.38;63.83;98437.81;4412208;32;19992;-69
2022/04/06 06:39:31;;;;;;;;;;;;;;;11.35;63.76;98450.84;4415331;32;20437;-69
2022/04/06 06:41:57;;;;;;;;;;;;;;;11.39;63.87;98445.00;4411713;32;19976;-69
2022/04/06 06:44:23;;;;;;;;;;;;;;;11.44;64.07;98449.91;4420077;32;20394;-69
2022/04/06 06:46:49;;;;;;;;;;;;;;;11.65;63.12;98457.78;4403367;32;20406;-69
2022/04/06 06:49:15;;;;;;;;;;;;;;;11.43;64.38;98445.53;4415676;32;19954;-69
2022/04/06 06:51:42;;;;;;;;;;;;;;;11.41;63.69;98448.06;4421036;32;20005;-69
2022/04/06 06:54:08;;;;;;;;;;;;;;;11.32;64.21;98448.28;4414022;32;20382;-69
2022/04/06 06:56:33;;;;;;;;;;;;;;;11.37;64.16;98455.97;4414350;32;19966;-69
2022/04/06 06:58:59;;;;;;;;;;;;;;;11.42;64.03;98461.66;4417175;32;20002;-70
2022/04/06 07:01:25;;;;;;;;;;;;;;;11.46;63.50;98453.78;4415456;32;19976;-70
2022/04/06 07:03:50;;;;;;;;;;;;;;;11.56;63.43;98443.06;4418149;32;20015;-70
2022/04/06 07:06:16;;;;;;;;;;;;;;;11.81;63.00;98442.25;4413778;32;20349;-70
2022/04/06 07:08:42;;;;;;;;;;;;;;;12.68;60.40;98446.84;4415497;32;19945;-70
2022/04/06 07:11:08;;;;;;;;;;;;;;;13.25;57.17;98435.16;4414912;32;20181;-70
2022/04/06 07:13:33;;;;;;;;;;;;;;;13.23;56.79;98452.63;4411983;32;19957;-70
2022/04/06 07:15:59;;;;;;;;;;;;;;;12.33;58.55;98442.84;4414301;32;19968;-70
2022/04/06 07:18:24;;;;;;;;;;;;;;;12.23;58.53;98419.72;4416769;32;20021;-70
2022/04/06 07:20:50;;;;;;;;;;;;;;;12.37;58.32;98457.47;4415309;32;20387;-70
2022/04/06 07:23:16;;;;;;;;;;;;;;;12.41;58.15;98427.75;4418256;32;20417;-70
2022/04/06 07:25:41;;;;;;;;;;;;;;;12.48;57.62;98423.66;4416745;32;19973;-70
2022/04/06 07:28:07;;;;;;;;;;;;;;;12.46;57.06;98415.72;4416696;32;20009;-70
2022/04/06 07:30:32;;;;;;;;;;;;;;;12.70;56.49;98424.50;4416065;32;20292;-70
2022/04/06 07:32:58;;;;;;;;;;;;;;;13.99;54.03;98400.16;4417292;32;19956;-70
2022/04/06 07:35:24;;;;;;;;;;;;;;;13.19;55.81;98411.81;4414355;32;20453;-69
2022/04/06 07:37:51;;;;;;;;;;;;;;;13.20;55.53;98430.28;4413139;32;19945;-70
2022/04/06 07:40:18;;;;;;;;;;;;;;;13.24;55.60;98417.47;4415714;32;19954;-70
2022/04/06 07:42:44;;;;;;;;;;;;;;;14.35;52.57;98420.12;4417184;32;19965;-70
2022/04/06 07:45:13;;;;;;;;;;;;;;;13.36;55.52;98409.75;4414707;32;20050;-70
2022/04/06 07:47:40;;;;;;;;;;;;;;;13.42;55.50;98411.31;4417447;32;19995;-70
2022/04/06 07:50:07;;;;;;;;;;;;;;;14.46;52.74;98423.72;4407546;32;20825;-70
2022/04/06 07:52:33;;;;;;;;;;;;;;;14.60;52.25;98416.94;4416069;32;19946;-70
2022/04/06 07:54:58;;;;;;;;;;;;;;;14.53;52.18;98416.72;4413012;32;19969;-70
2022/04/06 07:57:25;;;;;;;;;;;;;;;14.33;51.82;98392.37;4417847;32;20418;-70
2022/04/06 07:59:52;;;;;;;;;;;;;;;13.33;54.94;98408.75;4413432;32;19985;-70
2022/04/06 08:02:18;;;;;;;;;;;;;;;13.36;55.64;98399.25;4417594;32;19969;-70
2022/04/06 08:04:43;;;;;;;;;;;;;;;13.09;56.78;98387.91;4414641;32;19953;-70
2022/04/06 08:07:09;;;;;;;;;;;;;;;13.04;56.96;98405.63;4413215;32;19945;-70
2022/04/06 08:09:34;;;;;;;;;;;;;;;13.12;57.29;98387.69;4413714;32;19953;-70
2022/04/06 08:12:01;;;;;;;;;;;;;;;13.41;55.36;98401.28;4418963;32;20363;-70
2022/04/06 08:14:27;;;;;;;;;;;;;;;13.64;55.14;98383.03;4418299;32;20378;-70
2022/04/06 08:16:55;;;;;;;;;;;;;;;13.41;54.98;98387.16;4417938;32;19968;-70
2022/04/06 08:19:21;;;;;;;;;;;;;;;13.28;55.29;98383.31;4415373;32;19961;-70
2022/04/06 08:21:47;;;;;;;;;;;;;;;13.04;56.34;98371.75;4413160;32;20374;-70
2022/04/06 08:24:13;;;;;;;;;;;;;;;13.06;56.52;98381.25;4418103;32;20010;-70
2022/04/06 08:26:39;;;;;;;;;;;;;;;13.12;56.11;98373.56;4416142;32;19957;-69
2022/04/06 08:29:04;;;;;;;;;;;;;;;13.49;54.09;98374.06;4419881;32;20103;-70
2022/04/06 08:31:30;;;;;;;;;;;;;;;13.22;55.14;98365.59;4422948;32;19969;-70
2022/04/06 08:33:56;;;;;;;;;;;;;;;13.26;54.97;98369.69;4415385;32;20317;-70
2022/04/06 08:36:21;;;;;;;;;;;;;;;13.41;54.64;98364.56;4413155;32;20037;-70
2022/04/06 08:38:48;;;;;;;;;;;;;;;13.48;54.22;98364.06;4418029;32;20579;-70
2022/04/06 08:41:15;;;;;;;;;;;;;;;13.54;54.33;98359.16;4415328;32;19963;-70
2022/04/06 08:43:41;;;;;;;;;;;;;;;14.04;52.67;98393.75;4416842;32;20040;-70
2022/04/06 08:46:11;;;;;;;;;;;;;;;13.51;54.31;98365.06;4415716;32;19953;-70
2022/04/06 08:48:38;;;;;;;;;;;;;;;13.42;53.88;98368.94;4413602;32;19980;-70
2022/04/06 08:51:07;;;;;;;;;;;;;;;13.29;53.95;98370.75;4415050;32;19954;-70
2022/04/06 08:53:33;;;;;;;;;;;;;;;13.33;54.19;98377.66;4416254;32;20505;-70
2022/04/06 08:55:59;;;;;;;;;;;;;;;13.40;53.68;98359.41;4416861;32;19978;-70
2022/04/06 08:58:25;;;;;;;;;;;;;;;13.65;52.92;98366.84;4415693;32;20024;-69
2022/04/06 09:00:50;;;;;;;;;;;;;;;13.74;51.88;98383.53;4413102;32;19965;-70
2022/04/06 09:03:16;;;;;;;;;;;;;;;13.95;52.22;98360.09;4406368;32;19949;-70
2022/04/06 09:05:42;;;;;;;;;;;;;;;14.38;51.26;98351.19;4415392;32;19962;-69
2022/04/06 09:08:08;;;;;;;;;;;;;;;14.62;50.17;98363.44;4410931;32;19958;-70
2022/04/06 09:10:35;;;;;;;;;;;;;;;14.69;48.91;98353.59;4415308;32;19998;-70
2022/04/06 09:13:20;;;;;;;;;;;;;;;15.02;48.28;98356.22;4418598;32;20020;-70
2022/04/06 09:15:46;;;;;;;;;;;;;;;15.17;47.83;98365.13;4411882;32;19954;-70
2022/04/06 09:18:13;;;;;;;;;;;;;;;15.04;47.69;98351.56;4411415;32;20053;-70
2022/04/06 09:20:39;;;;;;;;;;;;;;;14.96;48.05;98342.09;4414435;32;19962;-70
2022/04/06 09:23:05;;;;;;;;;;;;;;;14.98;48.33;98345.19;4411458;32;19950;-70
2022/04/06 09:25:35;;;;;;;;;;;;;;;15.13;47.99;98339.91;4412532;32;20352;-70
2022/04/06 09:28:09;;;;;;;;;;;;;;;15.03;47.65;98346.44;4415144;32;20008;-70
2022/04/06 09:30:38;;;;;;;;;;;;;;;14.97;47.92;98331.56;4412078;32;20049;-72
2022/04/06 09:33:04;;;;;;;;;;;;;;;14.88;47.81;98318.47;4411543;32;19950;-70
2022/04/06 09:35:32;;;;;;;;;;;;;;;14.84;48.14;98334.97;4413380;32;20319;-70
2022/04/06 09:40:51;;;;;;;;;;;;;;;15.94;45.76;98324.72;3952874;32;15722936;-70
2022/04/06 09:43:24;;;;;;;;;;;;;;;15.94;45.76;98324.72;4431366;32;20402;-70
2022/04/06 09:48:53;;;;;;;;;;;;;;;15.88;46.06;98307.78;4429661;32;19996;-71
2022/04/06 09:51:19;;;;;;;;;;;;;;;15.60;46.52;98312.97;4433313;32;20434;-70
2022/04/06 09:53:48;;;;;;;;;;;;;;;15.76;46.00;98300.69;4433327;32;19993;-70
2022/04/06 09:56:14;;;;;;;;;;;;;;;15.81;45.19;98297.00;4434167;32;19953;-70
2022/04/06 09:58:41;;;;;;;;;;;;;;;16.21;45.50;98292.41;4417004;32;20288;-70
2022/04/06 10:01:07;;;;;;;;;;;;;;;16.70;46.14;98288.13;4432123;32;19997;-70
2022/04/06 10:03:35;;;;;;;;;;;;;;;16.37;46.04;98299.94;4433455;32;19988;-70
2022/04/06 10:06:01;;;;;;;;;;;;;;;15.69;47.67;98266.50;4430286;32;20393;-70
2022/04/06 10:08:31;;;;;;;;;;;;;;;15.46;48.50;98291.47;4430312;32;20002;-70
2022/04/06 10:10:58;;;;;;;;;;;;;;;15.69;48.39;98289.94;4430840;32;19957;-70
2022/04/06 10:13:24;;;;;;;;;;;;;;;16.21;46.77;98300.16;4424286;32;19965;-70
2022/04/06 10:15:50;;;;;;;;;;;;;;;15.69;48.85;98292.78;4429574;32;20123;-70
2022/04/06 10:18:17;;;;;;;;;;;;;;;15.43;50.31;98303.09;4434022;32;19957;-70
2022/04/06 10:20:48;;;;;;;;;;;;;;;14.84;51.99;98320.03;4430966;32;20036;-69
2022/04/06 10:23:33;;;;;;;;;;;;;;;13.86;57.01;98294.56;4434783;32;19963;-70
2022/04/06 10:28:34;;;;;;;;;;;;;;;13.28;64.61;98307.03;3954946;32;15723556;-69
2022/04/06 10:31:16;;;;;;;;;;;;;;;13.28;64.61;98307.03;4429197;32;20005;-69
2022/04/06 10:33:42;;;;;;;;;;;;;;;12.91;64.76;98298.84;4433844;32;20187;-69
2022/04/06 10:36:26;;;;;;;;;;;;;;;11.95;68.34;98312.50;4432339;32;20011;-69
2022/04/06 10:42:03;;;;;;;;;;;;;;;12.99;64.11;98280.13;3947360;31;15722031;-69
2022/04/06 10:44:36;;;;;;;;;;;;;;;12.99;64.11;98280.13;4419137;32;20000;-69
2022/04/06 10:47:09;;;;;;;;;;;;;;;11.87;68.95;98285.28;4420430;32;20321;-70
2022/04/06 10:49:36;;;;;;;;;;;;;;;11.77;69.02;98258.59;4422637;32;19966;-70
2022/04/06 10:52:18;;;;;;;;;;;;;;;12.93;66.79;98259.59;4418972;32;20313;-70
2022/04/06 10:54:44;;;;;;;;;;;;;;;13.01;66.31;98254.97;4420543;32;19958;-71
2022/04/06 10:57:10;;;;;;;;;;;;;;;12.09;68.92;98262.84;4417492;32;19965;-71
2022/04/06 10:59:36;;;;;;;;;;;;;;;11.80;68.30;98257.59;4427978;32;20281;-70
2022/04/06 11:02:18;;;;;;;;;;;;;;;11.79;70.35;98275.78;4422329;32;20333;-70
2022/04/06 11:04:44;;;;;;;;;;;;;;;11.65;70.78;98262.66;4420991;32;19958;-69
2022/04/06 11:07:10;;;;;;;;;;;;;;;12.59;66.80;98272.16;4417993;32;19957;-72
2022/04/06 11:10:08;;;;;;;;;;;;;;;12.29;63.58;98285.16;4412627;32;19997;-69
2022/04/06 11:17:37;;;;;;;;;;;;;;;11.09;70.33;98270.00;3956916;32;15725550;-70
2022/04/06 11:20:04;;;;;;;;;;;;;;;11.09;70.33;98270.00;4429529;32;20011;-71
2022/04/06 11:22:30;;;;;;;;;;;;;;;10.94;71.59;98268.59;4429518;32;20288;-72
2022/04/06 11:24:56;;;;;;;;;;;;;;;11.20;71.42;98264.41;4431906;32;19957;-72
2022/04/06 11:27:26;;;;;;;;;;;;;;;11.32;70.98;98256.84;4428734;32;19953;-72
2022/04/06 11:30:01;;;;;;;;;;;;;;;11.46;72.02;98247.44;4428956;32;19975;-71
2022/04/06 11:32:26;;;;;;;;;;;;;;;11.75;70.74;98241.44;4429355;32;20035;-71
2022/04/06 11:34:57;;;;;;;;;;;;;;;11.87;69.30;98234.56;4430505;32;19953;-72
2022/04/06 11:37:22;;;;;;;;;;;;;;;12.82;68.23;98231.34;4433621;32;20017;-71
2022/04/06 11:39:48;;;;;;;;;;;;;;;12.25;70.23;98221.84;4427194;32;20599;-71
2022/04/06 11:42:16;;;;;;;;;;;;;;;12.24;67.87;98214.69;4416075;32;19965;-72
2022/04/06 11:44:43;;;;;;;;;;;;;;;12.25;67.84;98211.34;4429740;32;20477;-72
2022/04/06 11:47:09;;;;;;;;;;;;;;;12.12;67.61;98199.03;4431780;32;20046;-72
2022/04/06 11:49:36;;;;;;;;;;;;;;;12.46;67.28;98192.91;4435868;32;19961;-72
2022/04/06 11:52:02;;;;;;;;;;;;;;;12.54;65.26;98208.03;4431748;32;19953;-72
2022/04/06 11:54:28;;;;;;;;;;;;;;;12.56;65.05;98194.19;4429990;32;20019;-71
2022/04/06 11:56:55;;;;;;;;;;;;;;;12.64;65.15;98181.09;4435882;32;19962;-71
2022/04/06 11:59:22;;;;;;;;;;;;;;;13.01;64.64;98169.53;4428799;32;19967;-72
2022/04/06 12:01:48;;;;;;;;;;;;;;;13.41;63.16;98175.28;4432504;32;19942;-71
2022/04/06 12:04:15;;;;;;;;;;;;;;;14.06;62.02;98173.41;4431386;32;20012;-71
2022/04/06 12:06:40;;;;;;;;;;;;;;;14.91;60.62;98181.50;4432309;32;19961;-71
2022/04/06 12:09:06;;;;;;;;;;;;;;;15.29;55.53;98169.03;4429545;32;19983;-70
2022/04/06 12:11:32;;;;;;;;;;;;;;;17.40;51.06;98161.63;4431810;32;19989;-69
2022/04/06 12:13:58;;;;;;;;;;;;;;;17.18;49.39;98157.13;4430412;32;20019;-69
2022/04/06 12:16:23;;;;;;;;;;;;;;;17.58;51.38;98166.47;4432505;32;20013;-68
2022/04/06 12:18:51;;;;;;;;;;;;;;;18.04;48.87;98168.56;4429041;32;19957;-68
2022/04/06 12:21:20;;;;;;;;;;;;;;;18.18;48.45;98175.75;4431868;32;20004;-68
2022/04/06 12:23:47;;;;;;;;;;;;;;;17.69;49.58;98166.22;4430794;32;19964;-69
2022/04/06 12:26:12;;;;;;;;;;;;;;;18.73;45.13;98168.00;4431988;32;20311;-68
2022/04/06 12:28:38;;;;;;;;;;;;;;;18.52;46.60;98173.69;4421889;32;19976;-68
2022/04/06 12:31:05;;;;;;;;;;;;;;;19.38;44.93;98168.34;4418019;32;20000;-69
2022/04/06 12:36:08;;;;;;;;;;;;;;;19.14;43.02;98170.78;3954378;32;15725553;-69
2022/04/06 12:38:34;;;;;;;;;;;;;;;19.14;43.02;98170.78;4431380;32;20034;-69
2022/04/06 12:41:15;;;;;;;;;;;;;;;18.64;42.62;98174.94;4430519;32;20196;-69
2022/04/06 12:43:45;;;;;;;;;;;;;;;17.95;43.71;98173.97;4432462;32;19992;-69
2022/04/06 12:46:11;;;;;;;;;;;;;;;17.49;45.49;98173.34;4431923;32;20022;-69
2022/04/06 12:48:38;;;;;;;;;;;;;;;17.47;47.41;98176.00;4433262;32;19972;-69
2022/04/06 12:51:21;;;;;;;;;;;;;;;16.39;47.29;98158.25;4432858;32;20053;-68
2022/04/06 12:53:49;;;;;;;;;;;;;;;16.30;48.72;98152.22;4430145;32;19994;-68
2022/04/06 12:56:15;;;;;;;;;;;;;;;16.16;47.93;98159.91;4430135;32;19981;-68
2022/04/06 12:58:42;;;;;;;;;;;;;;;16.79;47.82;98148.59;4428777;32;20044;-68
2022/04/06 13:01:09;;;;;;;;;;;;;;;17.42;45.77;98139.88;4426160;32;20374;-69
2022/04/06 13:03:35;;;;;;;;;;;;;;;17.53;43.40;98142.53;4429977;32;19950;-69
2022/04/06 13:06:01;;;;;;;;;;;;;;;17.21;43.24;98121.94;4433714;32;20023;-69
2022/04/06 13:08:26;;;;;;;;;;;;;;;17.34;43.66;98121.19;4427345;32;19961;-69